• Join FlightAware (Why Join?)
  • Login
  • US Flag 
05:49AM EDT


 

Airport Tracker/Info


-or-


 

Live Flight TrackerFlight Track Log ✈ FDX760 ✈ 17-Apr-2013 ✈ KMEM - KEWR

Flight Track Log - Related Links

Times and Time Zones

All times are in EDT time to prevent confusion due to time zone crossing. See the FDX760 flight status page for this flight to view local times or setup timezone preferences in your user account.

Time Position Orientation Groundspeed Altitude Reporting Facility
EDT Latitude Longitude Course Direction KTS MPH feet Rate Location/Type
05:22PM 35.0167 -89.9667 162° South 166 191 1,700  Level KMEM
05:23PM 34.9333 -89.9333 162° South 259 298 6,900 3,480 Climbing KMEM
05:25PM 34.9558 -89.7869 79° East 326 375 12,600 3,360 Climbing Memphis Center
05:26PM 35.0289 -89.7483 23° Northeast 297 342 15,600 3,180 Climbing Memphis Center
05:27PM 35.1269 -89.7581 355° North 304 350 19,000 3,000 Climbing Memphis Center
05:28PM 35.2208 -89.7650 357° North 330 380 21,700 1,980 Climbing Memphis Center
05:29PM 35.3231 -89.7514 North 357 411 23,000 600 Climbing Memphis Center
05:30PM 35.4122 -89.6894 30° Northeast 365 420 23,000 600 Level Memphis Center
05:31PM 35.5036 -89.6250 30° Northeast 370 426 24,200 1,200 Climbing Memphis Center
05:32PM 35.6094 -89.5475 31° Northeast 382 440 25,400 900 Climbing Memphis Center
05:33PM 35.7072 -89.4725 32° Northeast 419 482 26,100 1,380 Climbing Memphis Center
05:34PM 35.8233 -89.3842 32° Northeast 458 527 28,200 2,100 Climbing Memphis Center
05:35PM 35.9433 -89.2931 32° Northeast 483 556 30,300 660 Climbing Memphis Center
05:40PM 36.6380 -88.7700 32° Northeast 499 574 33,000 420 Climbing FlightAware
05:41PM 36.7180 -88.7080 32° Northeast 498 573 33,000  Level FlightAware
05:42PM 36.8040 -88.6430 31° Northeast 499 574 33,000  Level FlightAware
05:42PM 36.8810 -88.5840 31° Northeast 501 577 33,000  Level FlightAware
05:43PM 36.9580 -88.5240 32° Northeast 501 577 33,000  Level FlightAware
05:44PM 37.0500 -88.4520 32° Northeast 502 578 33,000  Level FlightAware
05:44PM 37.1280 -88.3920 32° Northeast 504 580 33,000  Level FlightAware
05:45PM 37.2050 -88.3340 31° Northeast 504 580 33,000  Level FlightAware
05:46PM 37.3040 -88.2560 32° Northeast 508 585 33,000  Level FlightAware
05:47PM 37.3790 -88.1970 32° Northeast 508 585 33,000  Level FlightAware
05:47PM 37.4700 -88.1250 32° Northeast 510 587 33,000 60 Level FlightAware
05:48PM 37.5520 -88.0610 32° Northeast 512 589 33,100 60 Climbing FlightAware
05:49PM 37.6410 -87.9900 32° Northeast 511 588 33,100  Level FlightAware
05:49PM 37.7220 -87.9270 32° Northeast 508 585 33,100 -120 Level FlightAware
05:50PM 37.8010 -87.8700 30° Northeast 501 577 33,000 -120 Descending FlightAware
05:51PM 37.8930 -87.8040 30° Northeast 497 572 33,000 60 Level FlightAware
05:51PM 37.9740 -87.7460 29° Northeast 492 566 33,100 660 Climbing FlightAware
05:52PM 38.0720 -87.7100 16° North 494 568 34,000 600 Climbing FlightAware
05:53PM 38.1610 -87.6850 12° North 490 564 34,000 600 Level FlightAware
05:54PM 38.2480 -87.6590 13° North 491 565 34,800 1,860 Climbing FlightAware
05:54PM 38.3400 -87.6000 27° Northeast 481 554 36,700 2,220 Climbing FlightAware
05:55PM 38.4150 -87.5390 33° Northeast 476 548 38,000 1,560 Climbing FlightAware
05:56PM 38.4880 -87.4810 32° Northeast 476 548 38,800 660 Climbing FlightAware
05:56PM 38.5740 -87.4100 33° Northeast 484 557 39,000 120 Climbing FlightAware
05:57PM 38.6450 -87.3510 33° Northeast 481 554 39,000  Level FlightAware
05:58PM 38.7210 -87.2880 33° Northeast 477 549 39,000  Level FlightAware
05:58PM 38.8050 -87.2190 33° Northeast 473 544 39,000  Level FlightAware
05:59PM 38.8800 -87.1560 33° Northeast 477 549 39,000  Level FlightAware
06:00PM 38.9600 -87.0900 33° Northeast 480 552 39,000  Level FlightAware
06:01PM 39.0370 -87.0250 33° Northeast 484 557 39,000  Level FlightAware
06:01PM 39.1140 -86.9610 33° Northeast 478 550 39,000  Level FlightAware
06:02PM 39.1920 -86.8950 33° Northeast 472 543 39,000  Level FlightAware
06:03PM 39.2790 -86.8230 33° Northeast 471 542 39,000  Level FlightAware
06:03PM 39.3450 -86.7480 41° Northeast 475 547 39,000  Level FlightAware
06:04PM 39.4150 -86.6580 45° Northeast 475 547 39,000  Level FlightAware
06:05PM 39.4770 -86.5810 44° Northeast 476 548 39,000  Level FlightAware
06:06PM 39.5410 -86.4870 49° Northeast 478 550 39,000  Level FlightAware
06:06PM 39.5910 -86.3950 55° Northeast 482 555 39,000  Level FlightAware
06:07PM 39.6610 -86.2570 57° Northeast 485 558 39,000  Level FlightAware
06:08PM 39.7180 -86.1200 62° Northeast 494 568 39,100  Climbing FlightAware
06:09PM 39.7840 -85.9590 62° Northeast 500 575 39,100 -60 Level FlightAware
06:10PM 39.8290 -85.8500 62° Northeast 507 583 39,000 -120 Descending FlightAware
06:10PM 39.8720 -85.7450 62° Northeast 508 585 39,000  Level FlightAware
06:11PM 39.9200 -85.6260 62° Northeast 500 575 39,000  Level FlightAware
06:12PM 39.9490 -85.5550 62° Northeast 496 571 39,000  Level FlightAware
06:13PM 40.0190 -85.3830 62° Northeast 493 567 39,000  Level FlightAware
06:13PM 40.0550 -85.2940 62° Northeast 493 567 39,000  Level FlightAware
06:14PM 40.1130 -85.1490 62° Northeast 484 557 39,000  Level FlightAware
06:15PM 40.1530 -85.0490 62° Northeast 483 556 39,000  Level FlightAware
06:15PM 40.1900 -84.9550 63° Northeast 483 556 39,000  Level FlightAware
06:16PM 40.2400 -84.8280 63° Northeast 482 555 39,000  Level FlightAware
06:17PM 40.2820 -84.7220 63° Northeast 481 554 39,000  Level FlightAware
06:18PM 40.3270 -84.6080 63° Northeast 482 555 39,000  Level FlightAware
06:18PM 40.3740 -84.4880 63° Northeast 485 558 39,000  Level FlightAware
06:19PM 40.4160 -84.3800 63° Northeast 487 560 39,000  Level FlightAware
06:20PM 40.4560 -84.2780 63° Northeast 485 558 39,000  Level FlightAware
06:20PM 40.5010 -84.1620 63° Northeast 488 562 39,000  Level FlightAware
06:21PM 40.5420 -84.0540 63° Northeast 488 562 39,000  Level FlightAware
06:22PM 40.5880 -83.9340 63° Northeast 489 563 39,000  Level FlightAware
06:23PM 40.6300 -83.8280 62° Northeast 490 564 39,000  Level FlightAware
06:23PM 40.6730 -83.7110 64° Northeast 489 563 39,000  Level FlightAware
06:24PM 40.7150 -83.6010 63° Northeast 490 564 39,000  Level FlightAware
06:25PM 40.7560 -83.4940 63° Northeast 492 566 39,000  Level FlightAware
06:25PM 40.8020 -83.3740 63° Northeast 492 566 39,000 60 Level FlightAware
06:26PM 40.8430 -83.2630 64° Northeast 491 565 39,100  Climbing FlightAware
06:27PM 40.8960 -83.1210 64° Northeast 492 566 39,000 -60 Descending FlightAware
06:28PM 40.9430 -82.9960 64° Northeast 494 568 39,000  Level FlightAware
06:28PM 40.9730 -82.9140 64° Northeast 496 571 39,000  Level FlightAware
06:29PM 41.0350 -82.7500 63° Northeast 497 572 39,000  Level FlightAware
06:30PM 41.0750 -82.6360 65° Northeast 499 574 39,000  Level FlightAware
06:31PM 41.1230 -82.5080 64° Northeast 489 563 39,000  Level FlightAware
06:31PM 41.1640 -82.3950 64° Northeast 488 562 39,000  Level FlightAware
06:32PM 41.2070 -82.2760 64° Northeast 486 559 39,000  Level FlightAware
06:33PM 41.2460 -82.1690 64° Northeast 487 560 39,000  Level FlightAware
06:34PM 41.2890 -82.0500 64° Northeast 480 552 39,000  Level FlightAware
06:34PM 41.3270 -81.9410 65° Northeast 475 547 39,000  Level FlightAware
06:35PM 41.3650 -81.8360 64° Northeast 472 543 39,000  Level FlightAware
06:36PM 41.4070 -81.7180 65° Northeast 473 544 39,000  Level FlightAware
06:36PM 41.4450 -81.6100 65° Northeast 473 544 39,000  Level FlightAware
06:37PM 41.4870 -81.4940 64° Northeast 472 543 39,000  Level FlightAware
06:38PM 41.5230 -81.3890 65° Northeast 470 541 39,000  Level FlightAware
06:38PM 41.5640 -81.2730 65° Northeast 474 545 39,000  Level FlightAware
06:39PM 41.6030 -81.1610 65° Northeast 473 544 39,000  Level FlightAware
06:40PM 41.6390 -81.0580 65° Northeast 475 547 39,000  Level FlightAware
06:40PM 41.6760 -80.9510 65° Northeast 479 551 39,000  Level FlightAware
06:41PM 41.7180 -80.8290 65° Northeast 484 557 39,000  Level FlightAware
06:42PM 41.7590 -80.7090 65° Northeast 484 557 39,000  Level FlightAware
06:43PM 41.7870 -80.5920 72° East 491 565 39,000 60 Level FlightAware
06:44PM 41.7850 -80.4220 91° East 492 566 39,100 60 Climbing FlightAware
06:44PM 41.7720 -80.2900 97° East 491 565 39,100  Level FlightAware
06:45PM 41.7600 -80.1720 98° East 488 562 39,100 -120 Level FlightAware
06:46PM 41.7480 -80.0500 97° East 484 557 39,000 -120 Descending FlightAware
06:46PM 41.7340 -79.9200 98° East 482 555 39,000  Level FlightAware
06:47PM 41.7210 -79.7990 98° East 482 555 39,000  Level FlightAware
06:48PM 41.7090 -79.6810 98° East 482 555 39,000  Level FlightAware
06:48PM 41.6950 -79.5510 98° East 481 554 39,000  Level FlightAware
06:49PM 41.6820 -79.4310 98° East 480 552 39,000  Level FlightAware
06:50PM 41.6670 -79.2990 99° East 479 551 39,000  Level FlightAware
06:51PM 41.6530 -79.1760 99° East 39,000  Level FlightAware
06:51PM 41.6370 -79.0270 98° East 479 551 39,000  Level FlightAware
06:52PM 41.6220 -78.8980 99° East 479 551 39,000  Level FlightAware
06:53PM 41.6090 -78.7810 98° East 486 559 39,000  Level FlightAware
06:54PM 41.5960 -78.6700 99° East 491 565 39,000 -600 Level FlightAware
06:54PM 41.5790 -78.5280 99° East 481 554 38,200 -1,320 Descending FlightAware
06:55PM 41.5670 -78.4250 99° East 482 555 37,300 -2,280 Descending FlightAware
06:56PM 41.5490 -78.2730 99° East 498 573 35,000 -2,820 Descending FlightAware
06:56PM 41.5340 -78.1480 99° East 500 575 33,100 -2,520 Descending FlightAware
06:57PM 41.5200 -78.0300 99° East 493 567 31,700 -1,500 Descending FlightAware
06:58PM 41.5040 -77.9070 100° East 492 566 31,000 -540 Descending FlightAware
06:58PM 41.4860 -77.7850 101° East 494 568 31,000  Level FlightAware
06:59PM 41.4650 -77.6410 101° East 496 571 31,000  Level FlightAware
07:00PM 41.4480 -77.5240 101° East 496 571 31,000  Level FlightAware
07:01PM 41.4290 -77.3860 100° East 497 572 31,000  Level FlightAware
07:01PM 41.4120 -77.2770 102° East 505 581 31,000  Level FlightAware
07:02PM 41.3940 -77.1510 101° East 507 583 31,000  Level FlightAware
07:03PM 41.3740 -77.0140 101° East 504 580 31,000  Level FlightAware
07:03PM 41.3560 -76.8960 101° East 503 579 31,000 -780 Level FlightAware
07:04PM 41.3370 -76.7750 102° East 495 570 29,900 -2,580 Descending FlightAware
07:05PM 41.3004 -76.6356 109° East 507 583 27,500 -3,600 Descending FlightAware ADS-B
07:05PM 41.2852 -76.5759 109° East 486 559 26,200 -3,540 Descending FlightAware ADS-B
07:06PM 41.2579 -76.4705 109° East 474 545 24,100 -2,820 Descending FlightAware ADS-B
07:07PM 41.2207 -76.3343 110° East 463 533 22,100 -2,280 Descending FlightAware ADS-B
07:08PM 41.1807 -76.1908 110° East 442 509 20,000 -2,100 Descending FlightAware ADS-B
07:08PM 41.1630 -76.1240 109° East 423 487 19,000 -2,100 Descending FlightAware
07:08PM 41.1527 -76.0879 111° Southeast 420 483 18,500 -2,220 Descending FlightAware ADS-B
07:09PM 41.1254 -75.9874 110° East 411 473 17,100 -1,920 Descending FlightAware ADS-B
07:09PM 41.1091 -75.9296 111° Southeast 396 456 16,400 -1,560 Descending FlightAware ADS-B
07:10PM 41.0908 -75.8620 110° East 390 449 15,700 -1,380 Descending FlightAware ADS-B
07:10PM 41.0709 -75.7903 110° East 388 447 15,000 -1,380 Descending FlightAware ADS-B
07:11PM 41.0520 -75.7216 110° East 382 440 14,300 -1,440 Descending FlightAware ADS-B
07:11PM 41.0305 -75.6431 110° East 377 434 13,400 -1,320 Descending FlightAware ADS-B
07:12PM 41.0056 -75.5551 111° Southeast 348 400 12,600 -1,020 Descending FlightAware ADS-B
07:13PM 40.9820 -75.4690 110° East 337 388 11,900 -960 Descending FlightAware
07:13PM 40.9700 -75.4278 111° Southeast 335 386 11,600 -780 Descending FlightAware ADS-B
07:15PM 40.9310 -75.2910 111° Southeast 317 365 10,700 -780 Descending FlightAware
07:15PM 40.9140 -75.2296 110° East 318 366 10,200 -1,080 Descending FlightAware ADS-B
07:15PM 40.9053 -75.1990 111° Southeast 313 360 9,900 -1,140 Descending FlightAware ADS-B
07:16PM 40.8926 -75.1547 111° Southeast 313 360 9,400 -1,200 Descending FlightAware ADS-B
07:16PM 40.8833 -75.1216 110° East 302 348 9,000 -1,260 Descending FlightAware ADS-B
07:16PM 40.8734 -75.0858 110° East 296 341 8,600 -1,200 Descending FlightAware ADS-B
07:17PM 40.8662 -75.0605 111° Southeast 292 336 8,300 -1,080 Descending FlightAware ADS-B
07:17PM 40.8540 -75.0150 110° East 295 339 7,800 -1,200 Descending FlightAware
07:17PM 40.8500 -75.0015 111° Southeast 296 341 7,600 -1,320 Descending FlightAware ADS-B
07:18PM 40.8401 -74.9625 109° East 292 336 7,200 -1,200 Descending FlightAware ADS-B
07:18PM 40.8394 -74.9503 94° East 288 331 7,000 -1,020 Descending FlightAware ADS-B
07:18PM 40.8440 -74.9095 82° East 277 319 6,700 -660 Descending FlightAware ADS-B
07:19PM 40.8493 -74.8577 82° East 258 297 6,400 -480 Descending FlightAware ADS-B
07:19PM 40.8525 -74.8293 82° East 244 281 6,300 -660 Descending FlightAware ADS-B
07:20PM 40.8580 -74.7760 82° East 232 267 5,800 -540 Descending FlightAware
07:20PM 40.8630 -74.7350 81° East 233 268 5,700 -120 Descending FlightAware
07:21PM 40.8660 -74.7020 83° East 235 270 5,700  Level FlightAware
07:21PM 40.8720 -74.6570 80° East 233 268 5,700  Level FlightAware
07:21PM 40.8740 -74.6350 83° East 230 265 5,700  Level FlightAware
07:22PM 40.8560 -74.5870 116° Southeast 239 275 5,700 -120 Level FlightAware
07:22PM 40.8400 -74.5840 172° South 239 275 5,600 -660 Descending FlightAware
07:23PM 40.8128 -74.5884 187° South 235 270 5,300 -900 Descending FlightAware ADS-B
07:23PM 40.7939 -74.5912 186° South 235 270 5,000 -1,080 Descending FlightAware ADS-B
07:23PM 40.7751 -74.5943 187° South 231 266 4,700 -420 Descending FlightAware ADS-B
07:24PM 40.7449 -74.5992 187° South 232 267 4,700  Level FlightAware ADS-B
07:24PM 40.7256 -74.6012 184° South 229 264 4,700  Level FlightAware ADS-B
07:24PM 40.7210 -74.6005 173° South 231 266 4,700  Level FlightAware ADS-B
07:25PM 40.6931 -74.5920 167° South 229 264 4,700  Level FlightAware ADS-B
07:25PM 40.6768 -74.5876 168° South 227 261 4,700  Level FlightAware ADS-B
07:25PM 40.6558 -74.5817 168° South 226 260 4,700  Level FlightAware ADS-B
07:26PM 40.6270 -74.5839 183° South 227 261 4,700  Level FlightAware ADS-B
07:26PM 40.5962 -74.5891 187° South 227 261 4,700  Level FlightAware ADS-B
07:27PM 40.5692 -74.5928 186° South 228 262 4,700  Level FlightAware ADS-B
07:27PM 40.5659 -74.5923 173° South 228 262 4,700 960 Level FlightAware ADS-B
07:27PM 40.5627 -74.5915 169° South 228 262 4,800  Climbing FlightAware ADS-B
07:27PM 40.5509 -74.5882 168° South 230 265 4,700 -360 Descending FlightAware ADS-B
07:27PM 40.5437 -74.5862 168° South 230 265 4,700  Level FlightAware ADS-B
07:27PM 40.5326 -74.5835 170° South 230 265 4,700  Level FlightAware ADS-B
07:27PM 40.5166 -74.5798 170° South 230 265 4,700  Level FlightAware ADS-B
07:28PM 40.4989 -74.5751 169° South 229 264 4,700  Level FlightAware ADS-B
07:28PM 40.4790 -74.5702 169° South 231 266 4,700  Level FlightAware ADS-B
07:28PM 40.4737 -74.5690 170° South 230 265 4,700  Level FlightAware ADS-B
07:28PM 40.4660 -74.5680 174° South 230 265 4,700  Level FlightAware ADS-B
07:28PM 40.4495 -74.5676 179° South 230 265 4,700  Level FlightAware ADS-B
07:29PM 40.4419 -74.5675 179° South 220 253 4,700 240 Level FlightAware ADS-B
07:29PM 40.4252 -74.5668 178° South 207 238 4,800  Climbing FlightAware ADS-B
07:29PM 40.4107 -74.5660 178° South 198 228 4,700 -180 Descending FlightAware ADS-B
07:29PM 40.3942 -74.5649 177° South 186 214 4,700  Level FlightAware ADS-B
07:30PM 40.3812 -74.5639 177° South 186 214 4,700  Level FlightAware ADS-B
07:30PM 40.3654 -74.5628 177° South 186 214 4,700  Level FlightAware ADS-B
07:30PM 40.3520 -74.5614 175° South 188 216 4,700  Level FlightAware ADS-B
07:30PM 40.3408 -74.5602 175° South 189 217 4,700  Level FlightAware ADS-B
07:31PM 40.3355 -74.5579 162° South 190 219 4,700  Level FlightAware ADS-B
07:31PM 40.3327 -74.5562 155° Southeast 190 219 4,700  Level FlightAware ADS-B
07:31PM 40.3304 -74.5533 136° Southeast 189 217 4,700  Level FlightAware ADS-B
07:31PM 40.3188 -74.5406 140° Southeast 185 213 4,700 -420 Level FlightAware ADS-B
07:31PM 40.3103 -74.5309 139° Southeast 188 216 4,500 -1,080 Descending FlightAware ADS-B
07:31PM 40.2996 -74.5177 137° Southeast 187 215 4,200 -1,020 Descending FlightAware ADS-B
07:32PM 40.2922 -74.5085 137° Southeast 186 214 4,000 -1,020 Descending FlightAware ADS-B
07:32PM 40.2886 -74.5032 132° Southeast 185 213 3,900 -900 Descending FlightAware ADS-B
07:32PM 40.2869 -74.4949 105° East 184 212 3,800 -960 Descending FlightAware ADS-B
07:32PM 40.2871 -74.4893 87° East 182 209 3,700 -600 Descending FlightAware ADS-B
07:32PM 40.2887 -74.4831 71° East 180 207 3,700 -720 Level FlightAware ADS-B
07:32PM 40.2899 -74.4802 62° Northeast 181 208 3,600 -900 Descending FlightAware ADS-B
07:32PM 40.2966 -74.4638 62° Northeast 182 209 3,400 -840 Descending FlightAware ADS-B
07:33PM 40.3053 -74.4438 60° Northeast 180 207 3,100 -1,020 Descending FlightAware ADS-B
07:33PM 40.3119 -74.4288 60° Northeast 179 206 2,800 -720 Descending FlightAware ADS-B
07:33PM 40.3194 -74.4122 59° Northeast 176 203 2,700 -240 Descending FlightAware ADS-B
07:34PM 40.3251 -74.4006 57° Northeast 176 203 2,700  Level FlightAware ADS-B
07:34PM 40.3312 -74.3934 42° Northeast 175 201 2,700  Level FlightAware ADS-B
07:34PM 40.3393 -74.3876 29° Northeast 174 200 2,700 240 Level FlightAware ADS-B
07:34PM 40.3463 -74.3833 25° Northeast 175 201 2,800  Climbing FlightAware ADS-B
07:34PM 40.3672 -74.3712 24° Northeast 196 226 2,700 -120 Descending FlightAware ADS-B
07:35PM 40.3910 -74.3566 25° Northeast 197 227 2,700  Level FlightAware ADS-B
07:36PM 40.4290 -74.3320 26° Northeast 178 205 2,700  Level FlightAware
07:36PM 40.4510 -74.3180 26° Northeast 175 201 2,700  Level FlightAware
07:37PM 40.4610 -74.3120 25° Northeast 176 203 2,700  Level FlightAware
07:37PM 40.4810 -74.2980 28° Northeast 174 200 2,700  Level FlightAware
07:37PM 40.4872 -74.2945 23° Northeast 175 201 2,700  Level FlightAware ADS-B
07:38PM 40.5240 -74.2720 25° Northeast 174 200 2,700  Level FlightAware
07:38PM 40.5336 -74.2656 27° Northeast 174 200 2,700  Level FlightAware ADS-B
07:38PM 40.5447 -74.2587 25° Northeast 174 200 2,700 -420 Level FlightAware ADS-B
07:39PM 40.5563 -74.2513 26° Northeast 175 201 2,500 -900 Descending FlightAware ADS-B
07:39PM 40.5741 -74.2399 26° Northeast 171 197 2,100 -900 Descending FlightAware ADS-B
07:39PM 40.5847 -74.2332 26° Northeast 168 193 1,900 -840 Descending FlightAware ADS-B
07:40PM 40.5954 -74.2265 25° Northeast 171 197 1,700 -1,020 Descending FlightAware ADS-B
07:40PM 40.6019 -74.2224 26° Northeast 171 197 1,500 -1,080 Descending FlightAware ADS-B
07:40PM 40.6152 -74.2139 26° Northeast 158 182 1,200 -780 Descending FlightAware ADS-B
07:40PM 40.6267 -74.2065 26° Northeast 144 166 1,000 -720 Descending FlightAware ADS-B
07:41PM 40.6359 -74.2008 25° Northeast 142 163 800 -840 Descending FlightAware ADS-B
07:41PM 40.6449 -74.1951 26° Northeast 143 165 600 -780 Descending FlightAware ADS-B
07:41PM 40.6550 -74.1886 26° Northeast 143 165 400 -900 Descending FlightAware ADS-B
07:41PM 40.6654 -74.1819 26° Northeast 151 174 100 -1,080 Descending FlightAware ADS-B